SWA655 KLAX-KOAK
Flight info
| Callsign | SWA655 |
|---|---|
| Flight time | N/A |
| Altitude | 36000 |
| Route | LADYJ4 COREZ RGOOD EMZOH3 |
| Aircraft | B738/M-SDE2E3FGHIRWXY/LB1 |
Departure
| Time | 2026-05-06 19:08 |
|---|---|
| Airport | Los Angeles International Airport (KLAX) |
Arrival
| Time | N/A |
|---|---|
| Airport | San Francisco Bay Oakland International Airport (KOAK) |
| Time | Latitude | Longitude | Altitude | Speed | Heading |
|---|---|---|---|---|---|
| 2026-05-06 18:47 | 33.94664 | -118.40335 | 117 ft | 0 kts | 263° |
| 2026-05-06 19:01 | 33.94665 | -118.40321 | 116 ft | 1 kts | 263° |
| 2026-05-06 19:01 | 33.94667 | -118.40305 | 116 ft | 1 kts | 263° |
| 2026-05-06 19:01 | 33.94669 | -118.40288 | 116 ft | 2 kts | 263° |
| 2026-05-06 19:02 | 33.94668 | -118.40270 | 116 ft | 2 kts | 295° |
| 2026-05-06 19:02 | 33.94660 | -118.40256 | 116 ft | 2 kts | 323° |
| 2026-05-06 19:02 | 33.94647 | -118.40250 | 116 ft | 2 kts | 354° |
| 2026-05-06 19:02 | 33.94632 | -118.40249 | 116 ft | 1 kts | 354° |
| 2026-05-06 19:03 | 33.94629 | -118.40248 | 116 ft | 0 kts | 353° |
| 2026-05-06 19:05 | 33.94648 | -118.40251 | 116 ft | 10 kts | 353° |
| 2026-05-06 19:05 | 33.94762 | -118.40269 | 116 ft | 15 kts | 352° |
| 2026-05-06 19:05 | 33.94856 | -118.40292 | 116 ft | 14 kts | 9° |
| 2026-05-06 19:06 | 33.94904 | -118.40209 | 116 ft | 13 kts | 82° |
| 2026-05-06 19:06 | 33.94915 | -118.40103 | 115 ft | 13 kts | 83° |
| 2026-05-06 19:06 | 33.94928 | -118.39993 | 113 ft | 13 kts | 69° |
| 2026-05-06 19:06 | 33.94997 | -118.39932 | 112 ft | 13 kts | 355° |
| 2026-05-06 19:07 | 33.95036 | -118.40013 | 113 ft | 14 kts | 264° |
| 2026-05-06 19:07 | 33.95007 | -118.40302 | 116 ft | 71 kts | 263° |
| 2026-05-06 19:07 | 33.94922 | -118.41149 | 123 ft | 140 kts | 263° |
| 2026-05-06 19:07 | 33.94792 | -118.42371 | 584 ft | 159 kts | 263° |
| 2026-05-06 19:08 | 33.94648 | -118.43745 | 1100 ft | 185 kts | 262° |
| 2026-05-06 19:08 | 33.94465 | -118.45240 | 1470 ft | 207 kts | 262° |
| 2026-05-06 19:08 | 33.94309 | -118.47023 | 2177 ft | 217 kts | 267° |
| 2026-05-06 19:08 | 33.94257 | -118.48778 | 2720 ft | 231 kts | 270° |
| 2026-05-06 19:09 | 33.94222 | -118.50748 | 3387 ft | 241 kts | 269° |
| 2026-05-06 19:09 | 33.94114 | -118.52745 | 4172 ft | 246 kts | 267° |
| 2026-05-06 19:09 | 33.93948 | -118.54799 | 4752 ft | 255 kts | 266° |
| 2026-05-06 19:09 | 33.93770 | -118.56894 | 4954 ft | 267 kts | 266° |
| 2026-05-06 19:10 | 33.93595 | -118.59033 | 4966 ft | 270 kts | 268° |
| 2026-05-06 19:10 | 33.93596 | -118.61327 | 4966 ft | 267 kts | 281° |
| 2026-05-06 19:10 | 33.94257 | -118.63353 | 5099 ft | 275 kts | 308° |
| 2026-05-06 19:10 | 33.95593 | -118.64885 | 6235 ft | 265 kts | 324° |
| 2026-05-06 19:11 | 33.97073 | -118.66124 | 7143 ft | 266 kts | 329° |
| 2026-05-06 19:11 | 33.98673 | -118.67241 | 7747 ft | 273 kts | 338° |
| 2026-05-06 19:11 | 34.00515 | -118.67784 | 7949 ft | 271 kts | 359° |
| 2026-05-06 19:11 | 34.02397 | -118.67703 | 7968 ft | 267 kts | 6° |